sensor_id;sensor_type;location;lat;lon;timestamp;P1;durP1;ratioP1;P2;durP2;ratioP2
4375;SDS011;2202;50.866;12.750;2022-12-10T00:00:41;51.80;;;27.07;;
4375;SDS011;2202;50.866;12.750;2022-12-10T00:03:08;43.00;;;25.93;;
4375;SDS011;2202;50.866;12.750;2022-12-10T00:05:36;51.63;;;28.33;;
4375;SDS011;2202;50.866;12.750;2022-12-10T00:08:03;51.10;;;27.40;;
4375;SDS011;2202;50.866;12.750;2022-12-10T00:10:30;41.50;;;25.10;;
4375;SDS011;2202;50.866;12.750;2022-12-10T00:12:57;47.73;;;26.80;;
4375;SDS011;2202;50.866;12.750;2022-12-10T00:15:24;46.73;;;27.53;;
4375;SDS011;2202;50.866;12.750;2022-12-10T00:17:51;49.43;;;25.03;;
4375;SDS011;2202;50.866;12.750;2022-12-10T00:20:18;50.37;;;30.47;;
4375;SDS011;2202;50.866;12.750;2022-12-10T00:22:46;44.90;;;26.33;;
4375;SDS011;2202;50.866;12.750;2022-12-10T00:25:13;52.60;;;28.97;;
4375;SDS011;2202;50.866;12.750;2022-12-10T00:27:39;52.40;;;27.80;;
4375;SDS011;2202;50.866;12.750;2022-12-10T00:30:07;49.83;;;28.30;;
4375;SDS011;2202;50.866;12.750;2022-12-10T00:32:35;51.13;;;27.63;;
4375;SDS011;2202;50.866;12.750;2022-12-10T00:35:02;55.30;;;27.40;;
4375;SDS011;2202;50.866;12.750;2022-12-10T00:37:29;54.83;;;28.77;;
4375;SDS011;2202;50.866;12.750;2022-12-10T00:39:57;54.90;;;28.77;;
4375;SDS011;2202;50.866;12.750;2022-12-10T00:42:25;52.90;;;27.97;;
4375;SDS011;2202;50.866;12.750;2022-12-10T00:44:52;51.33;;;28.67;;
4375;SDS011;2202;50.866;12.750;2022-12-10T00:47:19;57.83;;;28.43;;
4375;SDS011;2202;50.866;12.750;2022-12-10T00:49:45;56.90;;;30.17;;
4375;SDS011;2202;50.866;12.750;2022-12-10T00:52:12;57.30;;;29.80;;
4375;SDS011;2202;50.866;12.750;2022-12-10T00:54:39;56.90;;;30.10;;
4375;SDS011;2202;50.866;12.750;2022-12-10T00:57:08;64.47;;;32.53;;
4375;SDS011;2202;50.866;12.750;2022-12-10T00:59:34;59.27;;;30.10;;
4375;SDS011;2202;50.866;12.750;2022-12-10T01:02:01;61.30;;;28.50;;
4375;SDS011;2202;50.866;12.750;2022-12-10T01:04:28;55.90;;;29.20;;
4375;SDS011;2202;50.866;12.750;2022-12-10T01:06:55;56.33;;;27.60;;
4375;SDS011;2202;50.866;12.750;2022-12-10T01:09:23;59.73;;;34.10;;
4375;SDS011;2202;50.866;12.750;2022-12-10T01:11:52;62.10;;;30.30;;
4375;SDS011;2202;50.866;12.750;2022-12-10T01:14:22;54.97;;;31.17;;
4375;SDS011;2202;50.866;12.750;2022-12-10T01:16:53;62.77;;;31.30;;
4375;SDS011;2202;50.866;12.750;2022-12-10T01:19:21;54.37;;;30.17;;
4375;SDS011;2202;50.866;12.750;2022-12-10T01:21:49;53.70;;;28.10;;
4375;SDS011;2202;50.866;12.750;2022-12-10T01:24:16;67.00;;;31.73;;
4375;SDS011;2202;50.866;12.750;2022-12-10T01:26:43;63.30;;;31.73;;
4375;SDS011;2202;50.866;12.750;2022-12-10T01:29:10;68.77;;;35.17;;
4375;SDS011;2202;50.866;12.750;2022-12-10T01:31:39;66.17;;;30.60;;
4375;SDS011;2202;50.866;12.750;2022-12-10T01:34:07;60.47;;;28.20;;
4375;SDS011;2202;50.866;12.750;2022-12-10T01:36:37;77.70;;;32.83;;
4375;SDS011;2202;50.866;12.750;2022-12-10T01:39:06;68.97;;;31.23;;
4375;SDS011;2202;50.866;12.750;2022-12-10T01:41:36;70.03;;;31.40;;
4375;SDS011;2202;50.866;12.750;2022-12-10T01:44:05;79.13;;;31.77;;
4375;SDS011;2202;50.866;12.750;2022-12-10T01:47:11;83.20;;;32.43;;
4375;SDS011;2202;50.866;12.750;2022-12-10T01:49:38;68.43;;;30.80;;
4375;SDS011;2202;50.866;12.750;2022-12-10T01:52:06;79.00;;;32.97;;
4375;SDS011;2202;50.866;12.750;2022-12-10T01:54:35;74.80;;;33.57;;
4375;SDS011;2202;50.866;12.750;2022-12-10T01:57:04;72.17;;;31.40;;
4375;SDS011;2202;50.866;12.750;2022-12-10T01:59:33;89.07;;;30.20;;
4375;SDS011;2202;50.866;12.750;2022-12-10T02:02:03;71.10;;;31.53;;
4375;SDS011;2202;50.866;12.750;2022-12-10T02:04:40;65.30;;;30.57;;
4375;SDS011;2202;50.866;12.750;2022-12-10T02:07:17;110.73;;;32.87;;
4375;SDS011;2202;50.866;12.750;2022-12-10T02:09:50;105.37;;;32.73;;
4375;SDS011;2202;50.866;12.750;2022-12-10T02:12:26;106.17;;;30.70;;
4375;SDS011;2202;50.866;12.750;2022-12-10T02:15:00;76.43;;;33.23;;
4375;SDS011;2202;50.866;12.750;2022-12-10T02:17:32;77.33;;;28.27;;
4375;SDS011;2202;50.866;12.750;2022-12-10T02:20:06;92.43;;;30.70;;
4375;SDS011;2202;50.866;12.750;2022-12-10T02:22:39;62.83;;;26.33;;
4375;SDS011;2202;50.866;12.750;2022-12-10T02:25:11;75.60;;;28.43;;
4375;SDS011;2202;50.866;12.750;2022-12-10T02:27:42;68.43;;;28.40;;
4375;SDS011;2202;50.866;12.750;2022-12-10T02:30:15;73.33;;;28.23;;
4375;SDS011;2202;50.866;12.750;2022-12-10T02:32:43;66.70;;;28.60;;
4375;SDS011;2202;50.866;12.750;2022-12-10T02:35:14;59.33;;;27.90;;
4375;SDS011;2202;50.866;12.750;2022-12-10T02:37:45;68.87;;;29.20;;
4375;SDS011;2202;50.866;12.750;2022-12-10T02:40:17;70.90;;;30.23;;
4375;SDS011;2202;50.866;12.750;2022-12-10T02:42:49;54.87;;;23.80;;
4375;SDS011;2202;50.866;12.750;2022-12-10T02:45:18;58.57;;;27.20;;
4375;SDS011;2202;50.866;12.750;2022-12-10T02:47:48;63.90;;;27.10;;
4375;SDS011;2202;50.866;12.750;2022-12-10T02:50:16;75.33;;;27.03;;
4375;SDS011;2202;50.866;12.750;2022-12-10T02:52:45;86.93;;;29.40;;
4375;SDS011;2202;50.866;12.750;2022-12-10T02:55:13;66.77;;;27.07;;
4375;SDS011;2202;50.866;12.750;2022-12-10T02:57:41;71.23;;;29.97;;
4375;SDS011;2202;50.866;12.750;2022-12-10T03:00:20;66.90;;;28.00;;
4375;SDS011;2202;50.866;12.750;2022-12-10T03:02:52;72.73;;;25.73;;
4375;SDS011;2202;50.866;12.750;2022-12-10T03:05:30;64.80;;;29.90;;
4375;SDS011;2202;50.866;12.750;2022-12-10T03:08:03;75.50;;;27.73;;
4375;SDS011;2202;50.866;12.750;2022-12-10T03:10:35;73.90;;;29.50;;
4375;SDS011;2202;50.866;12.750;2022-12-10T03:13:07;69.30;;;28.80;;
4375;SDS011;2202;50.866;12.750;2022-12-10T03:15:40;59.93;;;26.83;;
4375;SDS011;2202;50.866;12.750;2022-12-10T03:18:09;76.90;;;32.03;;
4375;SDS011;2202;50.866;12.750;2022-12-10T03:20:38;92.60;;;28.20;;
4375;SDS011;2202;50.866;12.750;2022-12-10T03:23:10;62.93;;;26.50;;
4375;SDS011;2202;50.866;12.750;2022-12-10T03:25:41;56.03;;;25.37;;
4375;SDS011;2202;50.866;12.750;2022-12-10T03:28:09;72.97;;;28.77;;
4375;SDS011;2202;50.866;12.750;2022-12-10T03:30:36;81.67;;;29.53;;
4375;SDS011;2202;50.866;12.750;2022-12-10T03:33:06;64.23;;;28.40;;
4375;SDS011;2202;50.866;12.750;2022-12-10T03:35:34;74.97;;;30.60;;
4375;SDS011;2202;50.866;12.750;2022-12-10T03:38:01;79.30;;;33.40;;
4375;SDS011;2202;50.866;12.750;2022-12-10T03:40:29;79.20;;;28.50;;
4375;SDS011;2202;50.866;12.750;2022-12-10T03:42:56;61.20;;;27.53;;
4375;SDS011;2202;50.866;12.750;2022-12-10T03:45:22;56.47;;;28.80;;
4375;SDS011;2202;50.866;12.750;2022-12-10T03:47:49;64.97;;;30.20;;
4375;SDS011;2202;50.866;12.750;2022-12-10T03:50:18;80.37;;;31.27;;
4375;SDS011;2202;50.866;12.750;2022-12-10T03:52:44;77.40;;;30.37;;
4375;SDS011;2202;50.866;12.750;2022-12-10T03:55:11;82.77;;;29.60;;
4375;SDS011;2202;50.866;12.750;2022-12-10T03:57:38;75.30;;;28.33;;
4375;SDS011;2202;50.866;12.750;2022-12-10T04:00:05;82.47;;;31.07;;
4375;SDS011;2202;50.866;12.750;2022-12-10T04:02:33;82.37;;;31.33;;
4375;SDS011;2202;50.866;12.750;2022-12-10T04:05:00;83.57;;;28.80;;
4375;SDS011;2202;50.866;12.750;2022-12-10T04:07:28;70.27;;;30.57;;
4375;SDS011;2202;50.866;12.750;2022-12-10T04:09:55;83.80;;;31.60;;
4375;SDS011;2202;50.866;12.750;2022-12-10T04:12:22;95.63;;;31.60;;
4375;SDS011;2202;50.866;12.750;2022-12-10T04:14:49;74.30;;;31.97;;
4375;SDS011;2202;50.866;12.750;2022-12-10T04:17:42;97.77;;;35.43;;
4375;SDS011;2202;50.866;12.750;2022-12-10T04:20:09;91.47;;;32.00;;
4375;SDS011;2202;50.866;12.750;2022-12-10T04:22:58;97.83;;;35.77;;
4375;SDS011;2202;50.866;12.750;2022-12-10T04:25:42;90.47;;;33.30;;
4375;SDS011;2202;50.866;12.750;2022-12-10T04:28:27;83.10;;;34.23;;
4375;SDS011;2202;50.866;12.750;2022-12-10T04:30:53;85.60;;;33.50;;
4375;SDS011;2202;50.866;12.750;2022-12-10T04:33:20;78.50;;;33.20;;
4375;SDS011;2202;50.866;12.750;2022-12-10T04:35:47;80.63;;;30.87;;
4375;SDS011;2202;50.866;12.750;2022-12-10T04:38:15;91.50;;;32.97;;
4375;SDS011;2202;50.866;12.750;2022-12-10T04:40:42;81.17;;;31.23;;
4375;SDS011;2202;50.866;12.750;2022-12-10T04:43:09;106.03;;;36.57;;
4375;SDS011;2202;50.866;12.750;2022-12-10T04:45:36;83.63;;;33.83;;
4375;SDS011;2202;50.866;12.750;2022-12-10T04:48:03;83.93;;;34.27;;
4375;SDS011;2202;50.866;12.750;2022-12-10T04:50:30;83.87;;;32.77;;
4375;SDS011;2202;50.866;12.750;2022-12-10T04:52:56;89.57;;;33.43;;
4375;SDS011;2202;50.866;12.750;2022-12-10T04:55:25;81.23;;;30.63;;
4375;SDS011;2202;50.866;12.750;2022-12-10T04:57:51;89.37;;;31.67;;
4375;SDS011;2202;50.866;12.750;2022-12-10T05:00:18;79.23;;;31.50;;
4375;SDS011;2202;50.866;12.750;2022-12-10T05:02:47;82.67;;;32.63;;
4375;SDS011;2202;50.866;12.750;2022-12-10T05:05:14;73.67;;;29.50;;
4375;SDS011;2202;50.866;12.750;2022-12-10T05:07:41;82.90;;;34.70;;
4375;SDS011;2202;50.866;12.750;2022-12-10T05:10:08;74.30;;;29.63;;
4375;SDS011;2202;50.866;12.750;2022-12-10T05:12:36;86.30;;;34.70;;
4375;SDS011;2202;50.866;12.750;2022-12-10T05:15:04;66.90;;;30.50;;
4375;SDS011;2202;50.866;12.750;2022-12-10T05:17:32;80.53;;;31.93;;
4375;SDS011;2202;50.866;12.750;2022-12-10T05:19:59;81.23;;;30.10;;
4375;SDS011;2202;50.866;12.750;2022-12-10T05:22:26;78.03;;;31.43;;
4375;SDS011;2202;50.866;12.750;2022-12-10T05:25:10;64.87;;;29.37;;
4375;SDS011;2202;50.866;12.750;2022-12-10T05:27:38;76.27;;;30.60;;
4375;SDS011;2202;50.866;12.750;2022-12-10T05:30:06;73.20;;;29.10;;
4375;SDS011;2202;50.866;12.750;2022-12-10T05:32:34;70.37;;;28.80;;
4375;SDS011;2202;50.866;12.750;2022-12-10T05:35:01;64.10;;;29.70;;
4375;SDS011;2202;50.866;12.750;2022-12-10T05:37:28;79.70;;;30.60;;
4375;SDS011;2202;50.866;12.750;2022-12-10T05:39:55;78.93;;;29.63;;
4375;SDS011;2202;50.866;12.750;2022-12-10T05:42:21;78.60;;;30.87;;
4375;SDS011;2202;50.866;12.750;2022-12-10T05:44:50;84.60;;;33.90;;
4375;SDS011;2202;50.866;12.750;2022-12-10T05:47:16;79.27;;;29.30;;
4375;SDS011;2202;50.866;12.750;2022-12-10T05:49:43;67.37;;;29.90;;
4375;SDS011;2202;50.866;12.750;2022-12-10T05:52:12;67.57;;;28.63;;
4375;SDS011;2202;50.866;12.750;2022-12-10T05:54:39;67.93;;;30.40;;
4375;SDS011;2202;50.866;12.750;2022-12-10T05:57:06;70.80;;;29.73;;
4375;SDS011;2202;50.866;12.750;2022-12-10T05:59:32;74.00;;;29.87;;
4375;SDS011;2202;50.866;12.750;2022-12-10T06:02:01;82.97;;;30.70;;
4375;SDS011;2202;50.866;12.750;2022-12-10T06:04:27;68.97;;;30.00;;
4375;SDS011;2202;50.866;12.750;2022-12-10T06:06:54;72.23;;;30.70;;
4375;SDS011;2202;50.866;12.750;2022-12-10T06:09:21;67.67;;;29.80;;
4375;SDS011;2202;50.866;12.750;2022-12-10T06:11:48;71.20;;;29.90;;
4375;SDS011;2202;50.866;12.750;2022-12-10T06:14:15;72.63;;;28.20;;
4375;SDS011;2202;50.866;12.750;2022-12-10T06:16:41;77.57;;;33.23;;
4375;SDS011;2202;50.866;12.750;2022-12-10T06:19:10;72.20;;;31.60;;
4375;SDS011;2202;50.866;12.750;2022-12-10T06:21:37;71.63;;;30.47;;
4375;SDS011;2202;50.866;12.750;2022-12-10T06:24:04;72.20;;;34.27;;
4375;SDS011;2202;50.866;12.750;2022-12-10T06:26:31;83.60;;;35.10;;
4375;SDS011;2202;50.866;12.750;2022-12-10T06:28:58;89.47;;;33.37;;
4375;SDS011;2202;50.866;12.750;2022-12-10T06:31:26;81.43;;;29.60;;
4375;SDS011;2202;50.866;12.750;2022-12-10T06:33:53;69.43;;;31.80;;
4375;SDS011;2202;50.866;12.750;2022-12-10T06:36:21;79.77;;;33.10;;
4375;SDS011;2202;50.866;12.750;2022-12-10T06:38:48;74.83;;;32.33;;
4375;SDS011;2202;50.866;12.750;2022-12-10T06:41:16;70.20;;;28.40;;
4375;SDS011;2202;50.866;12.750;2022-12-10T06:43:45;88.37;;;30.03;;
4375;SDS011;2202;50.866;12.750;2022-12-10T06:46:13;67.50;;;29.90;;
4375;SDS011;2202;50.866;12.750;2022-12-10T06:48:41;72.77;;;30.50;;
4375;SDS011;2202;50.866;12.750;2022-12-10T06:51:09;72.67;;;26.50;;
4375;SDS011;2202;50.866;12.750;2022-12-10T06:53:39;58.03;;;26.70;;
4375;SDS011;2202;50.866;12.750;2022-12-10T06:56:07;81.60;;;28.80;;
4375;SDS011;2202;50.866;12.750;2022-12-10T06:58:37;72.53;;;30.80;;
4375;SDS011;2202;50.866;12.750;2022-12-10T07:01:05;66.53;;;28.53;;
4375;SDS011;2202;50.866;12.750;2022-12-10T07:03:34;73.00;;;30.90;;
4375;SDS011;2202;50.866;12.750;2022-12-10T07:06:02;57.40;;;28.27;;
4375;SDS011;2202;50.866;12.750;2022-12-10T07:08:30;63.83;;;27.37;;
4375;SDS011;2202;50.866;12.750;2022-12-10T07:10:58;66.10;;;28.20;;
4375;SDS011;2202;50.866;12.750;2022-12-10T07:13:25;80.50;;;29.60;;
4375;SDS011;2202;50.866;12.750;2022-12-10T07:15:52;72.40;;;30.03;;
4375;SDS011;2202;50.866;12.750;2022-12-10T07:18:19;74.70;;;31.60;;
4375;SDS011;2202;50.866;12.750;2022-12-10T07:20:46;77.57;;;30.53;;
4375;SDS011;2202;50.866;12.750;2022-12-10T07:23:12;71.53;;;30.90;;
4375;SDS011;2202;50.866;12.750;2022-12-10T07:25:39;70.87;;;29.43;;
4375;SDS011;2202;50.866;12.750;2022-12-10T07:28:07;70.40;;;30.43;;
4375;SDS011;2202;50.866;12.750;2022-12-10T07:30:34;62.87;;;28.27;;
4375;SDS011;2202;50.866;12.750;2022-12-10T07:33:01;73.30;;;31.17;;
4375;SDS011;2202;50.866;12.750;2022-12-10T07:35:28;74.57;;;30.57;;
4375;SDS011;2202;50.866;12.750;2022-12-10T07:37:55;95.80;;;34.00;;
4375;SDS011;2202;50.866;12.750;2022-12-10T07:40:21;71.90;;;30.10;;
4375;SDS011;2202;50.866;12.750;2022-12-10T07:42:48;71.20;;;30.27;;
4375;SDS011;2202;50.866;12.750;2022-12-10T07:45:17;95.13;;;35.10;;
4375;SDS011;2202;50.866;12.750;2022-12-10T07:47:43;75.37;;;33.10;;
4375;SDS011;2202;50.866;12.750;2022-12-10T07:50:10;64.00;;;28.00;;
4375;SDS011;2202;50.866;12.750;2022-12-10T07:52:37;63.43;;;29.10;;
4375;SDS011;2202;50.866;12.750;2022-12-10T07:55:04;61.80;;;29.70;;
4375;SDS011;2202;50.866;12.750;2022-12-10T07:57:31;58.20;;;27.40;;
4375;SDS011;2202;50.866;12.750;2022-12-10T07:59:58;58.10;;;29.80;;
4375;SDS011;2202;50.866;12.750;2022-12-10T08:02:26;63.40;;;28.97;;
4375;SDS011;2202;50.866;12.750;2022-12-10T08:04:53;58.30;;;25.60;;
4375;SDS011;2202;50.866;12.750;2022-12-10T08:07:20;60.63;;;28.50;;
4375;SDS011;2202;50.866;12.750;2022-12-10T08:09:47;51.50;;;26.67;;
4375;SDS011;2202;50.866;12.750;2022-12-10T08:12:13;63.70;;;29.63;;
4375;SDS011;2202;50.866;12.750;2022-12-10T08:14:40;62.77;;;26.33;;
4375;SDS011;2202;50.866;12.750;2022-12-10T08:17:07;68.70;;;31.00;;
4375;SDS011;2202;50.866;12.750;2022-12-10T08:19:35;62.97;;;28.03;;
4375;SDS011;2202;50.866;12.750;2022-12-10T08:22:02;61.20;;;28.20;;
4375;SDS011;2202;50.866;12.750;2022-12-10T08:24:29;66.97;;;27.53;;
4375;SDS011;2202;50.866;12.750;2022-12-10T08:26:56;73.37;;;30.40;;
4375;SDS011;2202;50.866;12.750;2022-12-10T08:29:23;73.03;;;27.57;;
4375;SDS011;2202;50.866;12.750;2022-12-10T08:31:50;62.73;;;28.33;;
4375;SDS011;2202;50.866;12.750;2022-12-10T08:34:17;57.20;;;28.23;;
4375;SDS011;2202;50.866;12.750;2022-12-10T08:36:46;61.87;;;29.80;;
4375;SDS011;2202;50.866;12.750;2022-12-10T08:39:13;67.53;;;27.40;;
4375;SDS011;2202;50.866;12.750;2022-12-10T08:41:41;56.87;;;25.60;;
4375;SDS011;2202;50.866;12.750;2022-12-10T08:44:08;61.70;;;29.37;;
4375;SDS011;2202;50.866;12.750;2022-12-10T08:46:36;60.23;;;29.10;;
4375;SDS011;2202;50.866;12.750;2022-12-10T08:49:03;69.63;;;28.70;;
4375;SDS011;2202;50.866;12.750;2022-12-10T08:51:31;58.70;;;28.13;;
4375;SDS011;2202;50.866;12.750;2022-12-10T08:54:00;58.40;;;28.00;;
4375;SDS011;2202;50.866;12.750;2022-12-10T08:56:26;58.90;;;26.80;;
4375;SDS011;2202;50.866;12.750;2022-12-10T08:58:53;53.73;;;25.77;;
4375;SDS011;2202;50.866;12.750;2022-12-10T09:01:20;49.93;;;24.60;;
4375;SDS011;2202;50.866;12.750;2022-12-10T09:03:47;58.53;;;25.83;;
4375;SDS011;2202;50.866;12.750;2022-12-10T09:06:15;61.57;;;24.57;;
4375;SDS011;2202;50.866;12.750;2022-12-10T09:08:44;49.60;;;24.53;;
4375;SDS011;2202;50.866;12.750;2022-12-10T09:11:13;58.37;;;25.77;;
4375;SDS011;2202;50.866;12.750;2022-12-10T09:13:42;56.87;;;25.10;;
4375;SDS011;2202;50.866;12.750;2022-12-10T09:16:09;43.23;;;23.17;;
4375;SDS011;2202;50.866;12.750;2022-12-10T09:18:36;45.97;;;22.47;;
4375;SDS011;2202;50.866;12.750;2022-12-10T09:21:04;54.47;;;23.63;;
4375;SDS011;2202;50.866;12.750;2022-12-10T09:23:32;45.50;;;24.33;;
4375;SDS011;2202;50.866;12.750;2022-12-10T09:25:59;48.77;;;26.27;;
4375;SDS011;2202;50.866;12.750;2022-12-10T09:28:27;39.80;;;22.03;;
4375;SDS011;2202;50.866;12.750;2022-12-10T09:30:54;48.17;;;23.73;;
4375;SDS011;2202;50.866;12.750;2022-12-10T09:33:22;42.03;;;22.40;;
4375;SDS011;2202;50.866;12.750;2022-12-10T09:35:49;48.43;;;22.70;;
4375;SDS011;2202;50.866;12.750;2022-12-10T09:38:16;46.57;;;23.40;;
4375;SDS011;2202;50.866;12.750;2022-12-10T09:40:44;52.40;;;25.00;;
4375;SDS011;2202;50.866;12.750;2022-12-10T09:43:16;56.00;;;23.20;;
4375;SDS011;2202;50.866;12.750;2022-12-10T09:45:54;49.07;;;24.47;;
4375;SDS011;2202;50.866;12.750;2022-12-10T09:48:32;46.40;;;22.57;;
4375;SDS011;2202;50.866;12.750;2022-12-10T09:51:07;49.97;;;24.10;;
4375;SDS011;2202;50.866;12.750;2022-12-10T09:53:38;43.33;;;23.83;;
4375;SDS011;2202;50.866;12.750;2022-12-10T09:56:09;37.30;;;22.33;;
4375;SDS011;2202;50.866;12.750;2022-12-10T09:58:45;44.67;;;22.30;;
4375;SDS011;2202;50.866;12.750;2022-12-10T10:01:14;41.80;;;20.80;;
4375;SDS011;2202;50.866;12.750;2022-12-10T10:03:44;41.50;;;21.40;;
4375;SDS011;2202;50.866;12.750;2022-12-10T10:06:11;42.13;;;21.40;;
4375;SDS011;2202;50.866;12.750;2022-12-10T10:08:40;54.00;;;23.83;;
4375;SDS011;2202;50.866;12.750;2022-12-10T10:11:09;45.80;;;22.47;;
4375;SDS011;2202;50.866;12.750;2022-12-10T10:13:40;39.23;;;20.73;;
4375;SDS011;2202;50.866;12.750;2022-12-10T10:16:19;40.23;;;19.97;;
4375;SDS011;2202;50.866;12.750;2022-12-10T10:18:50;42.47;;;21.97;;
4375;SDS011;2202;50.866;12.750;2022-12-10T10:21:22;42.30;;;22.60;;
4375;SDS011;2202;50.866;12.750;2022-12-10T10:23:51;43.97;;;21.00;;
4375;SDS011;2202;50.866;12.750;2022-12-10T10:26:18;44.10;;;22.23;;
4375;SDS011;2202;50.866;12.750;2022-12-10T10:28:45;40.93;;;21.40;;
4375;SDS011;2202;50.866;12.750;2022-12-10T10:31:24;40.70;;;22.17;;
4375;SDS011;2202;50.866;12.750;2022-12-10T10:33:53;48.20;;;25.63;;
4375;SDS011;2202;50.866;12.750;2022-12-10T10:36:23;49.57;;;25.20;;
4375;SDS011;2202;50.866;12.750;2022-12-10T10:38:51;38.67;;;21.50;;
4375;SDS011;2202;50.866;12.750;2022-12-10T10:41:18;44.50;;;23.30;;
4375;SDS011;2202;50.866;12.750;2022-12-10T10:43:46;45.27;;;22.83;;
4375;SDS011;2202;50.866;12.750;2022-12-10T10:46:15;44.67;;;22.67;;
4375;SDS011;2202;50.866;12.750;2022-12-10T10:48:45;43.03;;;23.10;;
4375;SDS011;2202;50.866;12.750;2022-12-10T10:51:15;42.93;;;22.60;;
4375;SDS011;2202;50.866;12.750;2022-12-10T10:53:48;47.63;;;23.53;;
4375;SDS011;2202;50.866;12.750;2022-12-10T10:56:17;42.87;;;21.50;;
4375;SDS011;2202;50.866;12.750;2022-12-10T10:58:49;37.07;;;22.47;;
4375;SDS011;2202;50.866;12.750;2022-12-10T11:01:21;43.37;;;23.87;;
4375;SDS011;2202;50.866;12.750;2022-12-10T11:03:55;41.00;;;22.00;;
4375;SDS011;2202;50.866;12.750;2022-12-10T11:06:24;34.07;;;19.77;;
4375;SDS011;2202;50.866;12.750;2022-12-10T11:08:53;37.07;;;21.10;;
4375;SDS011;2202;50.866;12.750;2022-12-10T11:11:25;37.40;;;20.90;;
4375;SDS011;2202;50.866;12.750;2022-12-10T11:14:12;42.50;;;21.83;;
4375;SDS011;2202;50.866;12.750;2022-12-10T11:16:40;39.30;;;21.17;;
4375;SDS011;2202;50.866;12.750;2022-12-10T11:19:16;39.47;;;22.47;;
4375;SDS011;2202;50.866;12.750;2022-12-10T11:21:45;37.97;;;21.50;;
4375;SDS011;2202;50.866;12.750;2022-12-10T11:24:15;40.50;;;20.93;;
4375;SDS011;2202;50.866;12.750;2022-12-10T11:26:56;36.50;;;21.40;;
4375;SDS011;2202;50.866;12.750;2022-12-10T11:29:38;43.40;;;22.00;;
4375;SDS011;2202;50.866;12.750;2022-12-10T11:32:21;40.07;;;22.77;;
4375;SDS011;2202;50.866;12.750;2022-12-10T11:35:00;31.00;;;18.17;;
4375;SDS011;2202;50.866;12.750;2022-12-10T11:37:36;31.80;;;17.93;;
4375;SDS011;2202;50.866;12.750;2022-12-10T11:40:14;34.77;;;19.37;;
4375;SDS011;2202;50.866;12.750;2022-12-10T11:42:55;33.20;;;18.90;;
4375;SDS011;2202;50.866;12.750;2022-12-10T11:45:33;38.20;;;22.33;;
4375;SDS011;2202;50.866;12.750;2022-12-10T11:48:14;36.47;;;21.23;;
4375;SDS011;2202;50.866;12.750;2022-12-10T11:50:58;42.07;;;23.13;;
4375;SDS011;2202;50.866;12.750;2022-12-10T11:53:35;43.33;;;23.90;;
4375;SDS011;2202;50.866;12.750;2022-12-10T11:56:19;40.87;;;22.70;;
4375;SDS011;2202;50.866;12.750;2022-12-10T11:58:54;41.03;;;25.13;;
4375;SDS011;2202;50.866;12.750;2022-12-10T12:01:30;50.67;;;24.97;;
4375;SDS011;2202;50.866;12.750;2022-12-10T12:04:16;43.33;;;23.83;;
4375;SDS011;2202;50.866;12.750;2022-12-10T12:07:01;44.20;;;23.50;;
4375;SDS011;2202;50.866;12.750;2022-12-10T12:09:54;41.97;;;23.40;;
4375;SDS011;2202;50.866;12.750;2022-12-10T12:12:35;39.20;;;20.43;;
4375;SDS011;2202;50.866;12.750;2022-12-10T12:15:13;38.63;;;19.37;;
4375;SDS011;2202;50.866;12.750;2022-12-10T12:17:47;37.30;;;22.43;;
4375;SDS011;2202;50.866;12.750;2022-12-10T12:20:18;38.70;;;20.90;;
4375;SDS011;2202;50.866;12.750;2022-12-10T12:22:51;44.90;;;24.63;;
4375;SDS011;2202;50.866;12.750;2022-12-10T12:25:23;47.53;;;24.40;;
4375;SDS011;2202;50.866;12.750;2022-12-10T12:27:55;37.00;;;20.50;;
4375;SDS011;2202;50.866;12.750;2022-12-10T12:30:26;49.27;;;24.40;;
4375;SDS011;2202;50.866;12.750;2022-12-10T12:32:54;45.77;;;24.00;;
4375;SDS011;2202;50.866;12.750;2022-12-10T12:35:28;46.33;;;24.77;;
4375;SDS011;2202;50.866;12.750;2022-12-10T12:38:06;55.00;;;28.00;;
4375;SDS011;2202;50.866;12.750;2022-12-10T12:40:56;51.53;;;24.93;;
4375;SDS011;2202;50.866;12.750;2022-12-10T12:43:28;57.27;;;27.57;;
4375;SDS011;2202;50.866;12.750;2022-12-10T12:46:05;74.90;;;30.20;;
4375;SDS011;2202;50.866;12.750;2022-12-10T12:48:38;55.73;;;28.90;;
4375;SDS011;2202;50.866;12.750;2022-12-10T12:51:13;55.93;;;29.23;;
4375;SDS011;2202;50.866;12.750;2022-12-10T12:53:45;49.90;;;27.50;;
4375;SDS011;2202;50.866;12.750;2022-12-10T12:56:15;49.97;;;26.47;;
4375;SDS011;2202;50.866;12.750;2022-12-10T12:58:52;52.00;;;26.50;;
4375;SDS011;2202;50.866;12.750;2022-12-10T13:01:30;55.97;;;26.07;;
4375;SDS011;2202;50.866;12.750;2022-12-10T13:04:03;48.93;;;25.13;;
4375;SDS011;2202;50.866;12.750;2022-12-10T13:06:33;47.17;;;26.30;;
4375;SDS011;2202;50.866;12.750;2022-12-10T13:09:24;43.07;;;23.97;;
4375;SDS011;2202;50.866;12.750;2022-12-10T13:14:55;43.57;;;24.30;;
4375;SDS011;2202;50.866;12.750;2022-12-10T13:17:31;50.67;;;26.03;;
4375;SDS011;2202;50.866;12.750;2022-12-10T13:22:57;48.87;;;27.20;;
4375;SDS011;2202;50.866;12.750;2022-12-10T13:28:37;46.73;;;27.03;;
4375;SDS011;2202;50.866;12.750;2022-12-10T13:34:06;45.30;;;24.53;;
4375;SDS011;2202;50.866;12.750;2022-12-10T13:37:05;45.00;;;25.93;;
4375;SDS011;2202;50.866;12.750;2022-12-10T13:42:32;43.97;;;23.40;;
4375;SDS011;2202;50.866;12.750;2022-12-10T13:45:25;44.77;;;25.07;;
4375;SDS011;2202;50.866;12.750;2022-12-10T13:47:55;47.93;;;26.20;;
4375;SDS011;2202;50.866;12.750;2022-12-10T13:50:44;50.00;;;24.17;;
4375;SDS011;2202;50.866;12.750;2022-12-10T13:53:16;46.50;;;25.33;;
4375;SDS011;2202;50.866;12.750;2022-12-10T13:55:53;43.50;;;24.80;;
4375;SDS011;2202;50.866;12.750;2022-12-10T13:58:37;50.73;;;27.57;;
4375;SDS011;2202;50.866;12.750;2022-12-10T14:01:12;54.03;;;29.50;;
4375;SDS011;2202;50.866;12.750;2022-12-10T14:03:48;51.90;;;27.50;;
4375;SDS011;2202;50.866;12.750;2022-12-10T14:06:38;46.63;;;26.03;;
4375;SDS011;2202;50.866;12.750;2022-12-10T14:09:06;60.10;;;30.23;;
4375;SDS011;2202;50.866;12.750;2022-12-10T14:11:38;50.40;;;28.27;;
4375;SDS011;2202;50.866;12.750;2022-12-10T14:14:13;54.93;;;27.40;;
4375;SDS011;2202;50.866;12.750;2022-12-10T14:16:48;39.33;;;23.00;;
4375;SDS011;2202;50.866;12.750;2022-12-10T14:19:15;38.80;;;23.40;;
4375;SDS011;2202;50.866;12.750;2022-12-10T14:21:44;39.37;;;24.77;;
4375;SDS011;2202;50.866;12.750;2022-12-10T14:24:29;41.60;;;23.87;;
4375;SDS011;2202;50.866;12.750;2022-12-10T14:26:59;42.57;;;22.73;;
4375;SDS011;2202;50.866;12.750;2022-12-10T14:29:29;45.43;;;26.17;;
4375;SDS011;2202;50.866;12.750;2022-12-10T14:31:56;39.00;;;23.33;;
4375;SDS011;2202;50.866;12.750;2022-12-10T14:34:24;44.93;;;24.37;;
4375;SDS011;2202;50.866;12.750;2022-12-10T14:36:53;41.93;;;21.97;;
4375;SDS011;2202;50.866;12.750;2022-12-10T14:39:24;51.83;;;24.17;;
4375;SDS011;2202;50.866;12.750;2022-12-10T14:41:55;41.73;;;24.13;;
4375;SDS011;2202;50.866;12.750;2022-12-10T14:44:23;40.60;;;22.47;;
4375;SDS011;2202;50.866;12.750;2022-12-10T14:46:57;41.97;;;24.33;;
4375;SDS011;2202;50.866;12.750;2022-12-10T14:49:30;41.77;;;24.20;;
4375;SDS011;2202;50.866;12.750;2022-12-10T14:51:57;39.97;;;22.30;;
4375;SDS011;2202;50.866;12.750;2022-12-10T14:54:27;38.53;;;22.73;;
4375;SDS011;2202;50.866;12.750;2022-12-10T14:56:58;39.20;;;24.30;;
4375;SDS011;2202;50.866;12.750;2022-12-10T14:59:31;40.87;;;22.93;;
4375;SDS011;2202;50.866;12.750;2022-12-10T15:02:02;35.70;;;22.10;;
4375;SDS011;2202;50.866;12.750;2022-12-10T15:04:39;32.50;;;21.73;;
4375;SDS011;2202;50.866;12.750;2022-12-10T15:07:11;29.63;;;17.77;;